Pagrindinis puslapis
METAR-TAF:

METAR-TAF

Oro uostai :

Akıncı, Turkija

platuma: 40-05N, ilguma: 032-34E, Aukštis: 843 m

METAR: trūkstamas

Laikas: 20:55 (17:55 UTC)

Prognozė

Ataskaita buvo paskelbta 1 valandą ir 15 minutes, ne 16:40 UTC
Prognozė galioja nuo 15 metu 18 UTC su 16 metu 03 UTC
Vėjas 8 kt iš Šiaurės Rytų
Matomumas 10 km arba daugiau
nėra debesų žemiau 1500 m ir nėra kamuolinių lietaus debesų

TAF: LTAE 151640Z 1518/1603 04008KT CAVOK

Orai ataskaitas ir orų prognozės (METAR, TAF).

turimą stotys yra geltonos ir raudonos taškus žemėlapyje.

Perkelti pele per norėdami pamatyti stoties vardą.

Tada spustelėkite, norėdami matyti oro stebėjimo ir prognozės.

Norėdami pakeisti žemėlapį: spustelėkite ant žalios mygtukų su juodo kryžiaus žemyn,; žalią mygtuką su brūkšneliu, jei norite nutolinti; arba žalių rodyklių gretimoms žemėlapius.


METAR-TAF: